Lincoln, New York
Current Conditions -  °F | °C
As of 8:54 PM on Sunday 23 Nov 2014 (Local Time) from KSYR Reporting Station
Broken Clouds Broken Clouds  
Wind Chill: 50°   Ceiling: 20000
Heat Index: 50°   Visibility: 10mi
Dew Point: 34°   Wind: 9mph
Humidity: 54%   Direction: 70°ENE
Pressure: 29.89"   Gusts: NA
Location:  43.0414°N, 75.7453°W
Report Text: KSYR 240154Z 07008KT 10SM SCT120 BKN200 10/01 A2989 RMK AO2 SLP118 T01000011 $
Loading
Personal Weather Stations






























Interactive Weather Map New forecast layout! Learn more

10-Day Weather Forecast

Advertisements
Track Severe Weather on mobile